createdAt,value
2022-08-16T00:02:30.485Z,42.69
2022-08-16T00:04:59.780Z,42.68
2022-08-16T00:07:29.099Z,43.25
2022-08-16T00:09:59.735Z,43.09
2022-08-16T00:12:30.666Z,43.38
2022-08-16T00:15:00.625Z,43.41
2022-08-16T00:17:28.164Z,43.06
2022-08-16T00:19:55.478Z,42.78
2022-08-16T00:22:25.500Z,43.51
2022-08-16T00:24:54.694Z,43.42
2022-08-16T00:27:22.758Z,43.74
2022-08-16T00:30:08.780Z,43.86
2022-08-16T00:32:39.025Z,43.90
2022-08-16T00:35:11.028Z,43.55
2022-08-16T00:37:56.743Z,44.07
2022-08-16T00:40:50.967Z,44.37
2022-08-16T00:43:42.930Z,44.84
2022-08-16T00:46:33.042Z,44.30
2022-08-16T00:49:04.614Z,44.79
2022-08-16T00:51:31.249Z,46.00
2022-08-16T00:53:57.956Z,45.64
2022-08-16T00:56:55.471Z,45.45
2022-08-16T00:59:17.277Z,45.36
2022-08-16T01:01:44.980Z,45.32
2022-08-16T01:04:30.149Z,46.64
2022-08-16T01:07:01.671Z,45.83
2022-08-16T01:09:34.914Z,45.52
2022-08-16T01:12:08.464Z,45.49
2022-08-16T01:14:49.549Z,45.69
2022-08-16T01:17:17.012Z,45.18
2022-08-16T01:19:46.745Z,45.29
2022-08-16T01:22:47.862Z,47.10
2022-08-16T01:25:08.523Z,46.67
2022-08-16T01:27:39.647Z,46.50
2022-08-16T01:30:19.987Z,48.21
2022-08-16T01:33:01.745Z,47.75
2022-08-16T01:35:42.592Z,47.14
2022-08-16T01:38:20.021Z,47.84
2022-08-16T01:40:47.720Z,48.79
2022-08-16T01:43:17.295Z,47.85
2022-08-16T01:45:44.105Z,47.87
2022-08-16T01:48:19.586Z,47.94
2022-08-16T01:51:08.157Z,49.05
2022-08-16T01:53:41.263Z,48.91
2022-08-16T01:56:23.205Z,49.55
2022-08-16T01:58:51.435Z,49.18
2022-08-16T02:01:18.341Z,49.41
2022-08-16T02:03:44.979Z,49.66
2022-08-16T02:06:34.706Z,49.29
2022-08-16T02:09:05.585Z,49.82
2022-08-16T02:11:47.653Z,49.93
2022-08-16T02:14:21.549Z,49.09
2022-08-16T02:16:49.248Z,48.44
2022-08-16T02:19:18.248Z,48.27
2022-08-16T02:22:07.712Z,48.66
2022-08-16T02:24:41.230Z,49.27
2022-08-16T02:27:10.432Z,50.36
2022-08-16T02:29:37.980Z,49.59
2022-08-16T02:32:49.878Z,49.85
2022-08-16T02:34:56.500Z,50.08
2022-08-16T02:37:23.245Z,49.13
2022-08-16T02:39:54.188Z,49.93
2022-08-16T02:42:21.398Z,50.05
2022-08-16T02:44:49.003Z,49.45
2022-08-16T02:47:24.947Z,48.88
2022-08-16T02:50:28.020Z,49.64
2022-08-16T02:52:39.300Z,49.67
2022-08-16T02:55:11.174Z,50.36
2022-08-16T02:57:42.576Z,49.86
2022-08-16T03:00:34.574Z,49.33
2022-08-16T03:03:03.386Z,49.02
2022-08-16T03:05:31.751Z,48.85
2022-08-16T03:08:00.204Z,48.70
2022-08-16T03:10:33.367Z,49.12
2022-08-16T03:13:01.005Z,48.47
2022-08-16T03:15:28.293Z,48.19
2022-08-16T03:17:55.818Z,48.45
2022-08-16T03:20:32.379Z,49.60
2022-08-16T03:22:59.654Z,49.00
2022-08-16T03:25:43.967Z,49.13
2022-08-16T03:28:11.064Z,48.49
2022-08-16T03:30:38.285Z,48.96
2022-08-16T03:33:05.515Z,49.37
2022-08-16T03:35:35.994Z,48.84
2022-08-16T03:38:04.878Z,50.22
2022-08-16T03:40:51.787Z,48.99
2022-08-16T03:43:20.118Z,48.79
2022-08-16T03:45:48.302Z,48.94
2022-08-16T03:48:18.238Z,48.82
2022-08-16T03:50:59.862Z,49.68
2022-08-16T03:53:37.921Z,49.01
2022-08-16T03:56:07.515Z,48.41
2022-08-16T03:58:36.996Z,48.76
2022-08-16T04:01:04.561Z,49.53
2022-08-16T04:03:33.532Z,50.66
2022-08-16T04:06:02.174Z,49.94
2022-08-16T04:08:31.194Z,49.75
2022-08-16T04:10:58.156Z,49.24
2022-08-16T04:14:01.460Z,49.21
2022-08-16T04:16:26.462Z,48.75
2022-08-16T04:19:02.434Z,48.98
2022-08-16T04:21:32.933Z,50.25
2022-08-16T04:24:00.307Z,49.40
2022-08-16T04:26:31.050Z,49.22
2022-08-16T04:29:14.946Z,49.62
2022-08-16T04:31:56.459Z,48.78
2022-08-16T04:34:27.421Z,49.58
2022-08-16T04:36:54.836Z,48.23
2022-08-16T04:39:24.241Z,48.66
2022-08-16T04:41:57.026Z,49.42
2022-08-16T04:44:52.455Z,49.15
2022-08-16T04:47:21.659Z,49.15
2022-08-16T04:49:52.547Z,49.69
2022-08-16T04:52:32.690Z,49.84
2022-08-16T04:55:07.547Z,50.08
2022-08-16T04:57:34.571Z,49.88
2022-08-16T05:00:32.098Z,50.42
2022-08-16T05:02:54.841Z,51.11
2022-08-16T05:05:23.345Z,50.46
2022-08-16T05:07:58.167Z,49.90
2022-08-16T05:10:29.726Z,49.68
2022-08-16T05:12:57.681Z,49.94
2022-08-16T05:15:24.602Z,50.69
2022-08-16T05:17:58.785Z,49.66
2022-08-16T05:20:35.594Z,49.32
2022-08-16T05:23:11.789Z,50.55
2022-08-16T05:25:41.065Z,49.46
2022-08-16T05:28:14.826Z,48.74
2022-08-16T05:30:41.472Z,48.81
2022-08-16T05:33:16.914Z,48.25
2022-08-16T05:35:54.900Z,48.79
2022-08-16T05:38:30.886Z,48.21
2022-08-16T05:41:04.073Z,48.15
2022-08-16T05:43:43.329Z,48.86
2022-08-16T05:46:29.992Z,49.48
2022-08-16T05:49:05.721Z,51.38
2022-08-16T05:51:38.429Z,49.44
2022-08-16T05:54:06.772Z,49.07
2022-08-16T05:56:34.156Z,48.62
2022-08-16T05:59:06.327Z,48.19
2022-08-16T06:01:38.968Z,49.71
2022-08-16T06:04:13.633Z,48.81
2022-08-16T06:06:55.847Z,49.22
2022-08-16T06:09:25.204Z,49.02
2022-08-16T06:11:52.139Z,48.14
2022-08-16T06:14:19.170Z,48.96
2022-08-16T06:16:50.839Z,48.11
2022-08-16T06:19:18.127Z,50.37
2022-08-16T06:21:45.629Z,49.66
2022-08-16T06:24:53.979Z,48.80
2022-08-16T06:27:08.069Z,48.56
2022-08-16T06:29:34.637Z,49.13
2022-08-16T06:32:01.252Z,47.42
2022-08-16T06:34:31.527Z,47.22
2022-08-16T06:37:16.509Z,46.81
2022-08-16T06:39:49.636Z,46.54
2022-08-16T06:42:18.374Z,45.73
2022-08-16T06:44:46.278Z,45.51
2022-08-16T06:47:17.190Z,45.88
2022-08-16T06:49:52.936Z,45.80
2022-08-16T06:52:59.757Z,46.34
2022-08-16T06:55:13.516Z,45.51
2022-08-16T06:57:40.711Z,45.54
2022-08-16T07:00:24.111Z,45.08
2022-08-16T07:02:52.923Z,46.40
2022-08-16T07:05:20.630Z,45.44
2022-08-16T07:07:54.075Z,45.35
2022-08-16T07:10:25.705Z,45.78
2022-08-16T07:13:03.398Z,44.97
2022-08-16T07:15:34.836Z,45.20
2022-08-16T07:18:01.810Z,45.01
2022-08-16T07:20:43.559Z,44.48
2022-08-16T07:23:15.529Z,44.09
2022-08-16T07:25:42.566Z,45.06
2022-08-16T07:28:12.127Z,45.21
2022-08-16T07:30:48.319Z,44.88
2022-08-16T07:33:51.206Z,44.37
2022-08-16T07:36:07.001Z,44.72
2022-08-16T07:38:34.345Z,43.95
2022-08-16T07:41:01.917Z,44.50
2022-08-16T07:43:36.386Z,44.28
2022-08-16T07:46:07.321Z,43.92
2022-08-16T07:48:55.210Z,42.77
2022-08-16T07:51:22.554Z,42.35
2022-08-16T07:54:09.058Z,43.31
2022-08-16T07:56:37.544Z,42.81
2022-08-16T07:59:05.047Z,41.38
2022-08-16T08:01:31.967Z,42.03
2022-08-16T08:03:58.885Z,41.55
2022-08-16T08:06:29.592Z,40.40
2022-08-16T08:08:57.260Z,39.72
2022-08-16T08:11:24.885Z,39.38
2022-08-16T08:13:55.745Z,39.21
2022-08-16T08:16:30.250Z,38.76
2022-08-16T08:19:01.156Z,39.17
2022-08-16T08:22:00.190Z,38.65
2022-08-16T08:24:18.192Z,38.29
2022-08-16T08:26:44.760Z,37.28
2022-08-16T08:29:23.077Z,37.49
2022-08-16T08:31:52.824Z,37.43
2022-08-16T08:34:19.621Z,36.47
2022-08-16T08:36:46.181Z,36.01
2022-08-16T08:39:15.451Z,36.00
2022-08-16T08:41:49.430Z,36.40
2022-08-16T08:44:29.192Z,35.63
2022-08-16T08:47:01.578Z,36.02
2022-08-16T08:49:46.177Z,36.59
2022-08-16T08:52:35.426Z,35.74
2022-08-16T08:55:10.303Z,33.58
2022-08-16T08:57:42.026Z,34.58
2022-08-16T09:00:13.686Z,34.09
2022-08-16T09:02:46.479Z,33.63
2022-08-16T09:05:20.361Z,32.72
2022-08-16T09:08:00.587Z,31.26
2022-08-16T09:10:30.109Z,33.39
2022-08-16T09:12:58.418Z,30.82
2022-08-16T09:15:26.353Z,33.77
2022-08-16T09:18:00.548Z,31.93
2022-08-16T09:20:29.625Z,31.23
2022-08-16T09:22:57.162Z,31.03
2022-08-16T09:25:26.071Z,28.59
2022-08-16T09:27:58.070Z,28.60
2022-08-16T09:30:34.133Z,28.15
2022-08-16T09:33:10.495Z,24.46
2022-08-16T09:35:39.040Z,20.00
2022-08-16T09:38:08.694Z,16.46
2022-08-16T09:40:42.649Z,18.32
2022-08-16T09:43:21.037Z,15.39
2022-08-16T09:45:57.974Z,16.64
2022-08-16T09:48:43.978Z,15.67
2022-08-16T09:51:13.266Z,11.27
2022-08-16T09:53:41.037Z,11.72
2022-08-16T09:56:20.763Z,11.35
2022-08-16T09:59:03.712Z,11.87
2022-08-16T10:01:33.405Z,9.62
2022-08-16T10:04:02.891Z,10.13
2022-08-16T10:06:33.195Z,10.20
2022-08-16T10:09:06.226Z,13.27
2022-08-16T10:11:53.822Z,11.25
2022-08-16T10:14:32.713Z,9.60
2022-08-16T10:17:05.135Z,11.29
2022-08-16T10:19:32.762Z,13.06
2022-08-16T10:22:04.921Z,11.91
2022-08-16T10:24:32.672Z,9.04
2022-08-16T10:27:25.643Z,9.84
2022-08-16T10:30:01.400Z,9.55
2022-08-16T10:32:35.503Z,10.42
2022-08-16T10:35:06.591Z,10.98
2022-08-16T10:37:36.528Z,8.27
2022-08-16T10:40:29.632Z,7.99
2022-08-16T10:42:55.110Z,10.22
2022-08-16T10:45:21.759Z,7.29
2022-08-16T10:48:00.779Z,8.14
2022-08-16T10:50:31.507Z,9.56
2022-08-16T10:52:59.448Z,8.94
2022-08-16T10:55:45.014Z,8.19
2022-08-16T10:58:17.005Z,9.23
2022-08-16T11:00:46.229Z,9.67
2022-08-16T11:06:03.221Z,9.87
2022-08-16T11:08:37.011Z,9.41
2022-08-16T11:11:13.004Z,9.31
2022-08-16T11:14:10.964Z,8.41
2022-08-16T11:19:20.367Z,12.76
2022-08-16T11:24:42.658Z,14.51
2022-08-16T11:27:23.158Z,16.23
2022-08-16T11:29:52.883Z,18.71
2022-08-16T11:32:28.384Z,14.86
2022-08-16T11:35:13.529Z,16.05
2022-08-16T11:40:37.735Z,13.85
2022-08-16T11:43:06.391Z,17.82
2022-08-16T11:45:35.409Z,16.28
2022-08-16T11:48:04.661Z,14.78
2022-08-16T11:50:33.980Z,15.55
2022-08-16T11:53:03.444Z,13.52
2022-08-16T11:55:31.984Z,16.31
2022-08-16T11:58:00.174Z,13.17
2022-08-16T12:00:34.125Z,11.87
2022-08-16T12:03:15.615Z,11.04
2022-08-16T12:05:44.384Z,9.45
2022-08-16T12:08:11.816Z,10.32
2022-08-16T12:10:43.099Z,11.57
2022-08-16T12:13:15.037Z,14.36
2022-08-16T12:15:42.131Z,13.25
2022-08-16T12:18:09.015Z,11.89
2022-08-16T12:20:41.689Z,11.76
2022-08-16T12:23:08.411Z,12.99
2022-08-16T12:25:35.874Z,14.42
2022-08-16T12:28:08.236Z,17.10
2022-08-16T12:30:39.153Z,19.63
2022-08-16T12:33:08.725Z,20.04
2022-08-16T12:35:38.232Z,20.95
2022-08-16T12:38:08.833Z,21.13
2022-08-16T12:40:57.182Z,22.05
2022-08-16T12:43:25.313Z,21.73
2022-08-16T12:45:54.129Z,22.29
2022-08-16T12:48:43.811Z,23.50
2022-08-16T12:51:19.459Z,22.62
2022-08-16T12:53:47.698Z,23.39
2022-08-16T12:56:14.324Z,24.62
2022-08-16T12:58:49.301Z,23.19
2022-08-16T13:01:22.743Z,25.28
2022-08-16T13:03:59.283Z,24.85
2022-08-16T13:06:36.441Z,25.32
2022-08-16T13:09:18.225Z,23.82
2022-08-16T13:11:57.199Z,23.16
2022-08-16T13:14:31.311Z,22.18
2022-08-16T13:17:02.582Z,22.86
2022-08-16T13:19:56.301Z,23.17
2022-08-16T13:22:19.604Z,23.15
2022-08-16T13:24:46.645Z,22.27
2022-08-16T13:27:13.536Z,22.61
2022-08-16T13:29:43.795Z,22.88
2022-08-16T13:32:39.461Z,23.64
2022-08-16T13:34:59.217Z,23.02
2022-08-16T13:37:27.750Z,23.48
2022-08-16T13:39:54.614Z,23.91
2022-08-16T13:42:21.747Z,22.82
2022-08-16T13:44:58.211Z,22.88
2022-08-16T13:47:30.260Z,23.04
2022-08-16T13:49:57.015Z,22.04
2022-08-16T13:52:25.080Z,21.31
2022-08-16T13:54:51.719Z,22.16
2022-08-16T13:57:18.241Z,21.22
2022-08-16T13:59:46.936Z,21.56
2022-08-16T14:02:17.232Z,21.89
2022-08-16T14:04:44.730Z,21.89
2022-08-16T14:07:19.898Z,22.49
2022-08-16T14:09:51.099Z,22.14
2022-08-16T14:12:28.045Z,23.11
2022-08-16T14:14:57.413Z,22.84
2022-08-16T14:17:25.357Z,22.61
2022-08-16T14:19:52.678Z,22.03
2022-08-16T14:22:35.826Z,21.79
2022-08-16T14:25:10.516Z,20.82
2022-08-16T14:27:46.116Z,21.36
2022-08-16T14:30:16.426Z,20.59
2022-08-16T14:32:50.862Z,20.92
2022-08-16T14:35:36.592Z,22.35
2022-08-16T14:38:11.294Z,22.34
2022-08-16T14:40:52.764Z,22.84
2022-08-16T14:43:23.349Z,22.38
2022-08-16T14:45:50.552Z,22.92
2022-08-16T14:48:25.080Z,22.80
2022-08-16T14:50:52.765Z,22.59
2022-08-16T14:53:22.888Z,22.17
2022-08-16T14:55:49.441Z,23.22
2022-08-16T14:58:19.381Z,23.37
2022-08-16T15:00:47.237Z,22.69
2022-08-16T15:03:13.849Z,22.69
2022-08-16T15:05:41.933Z,22.73
2022-08-16T15:08:09.917Z,22.58
2022-08-16T15:10:39.046Z,22.59
2022-08-16T15:13:10.751Z,22.19
2022-08-16T15:15:39.771Z,22.37
2022-08-16T15:18:11.859Z,22.46
2022-08-16T15:20:41.140Z,21.91
2022-08-16T15:23:08.699Z,21.77
2022-08-16T15:25:41.215Z,21.84
2022-08-16T15:28:23.600Z,22.24
2022-08-16T15:31:00.939Z,21.66
2022-08-16T15:33:32.089Z,22.47
2022-08-16T15:35:59.418Z,22.03
2022-08-16T15:38:54.744Z,22.82
2022-08-16T15:41:36.525Z,23.87
2022-08-16T15:44:10.854Z,22.88
2022-08-16T15:46:54.931Z,23.08
2022-08-16T15:49:37.849Z,24.14
2022-08-16T15:52:20.910Z,23.79
2022-08-16T15:54:55.785Z,25.28
2022-08-16T15:57:27.385Z,25.93
2022-08-16T15:59:56.087Z,25.58
2022-08-16T16:02:29.653Z,26.04
2022-08-16T16:05:04.360Z,26.40
2022-08-16T16:07:33.323Z,27.04
2022-08-16T16:10:05.805Z,25.26
2022-08-16T16:12:51.065Z,25.72
2022-08-16T16:15:29.557Z,26.40
2022-08-16T16:17:56.598Z,26.73
2022-08-16T16:20:27.606Z,25.83
2022-08-16T16:23:06.482Z,26.35
2022-08-16T16:25:38.519Z,26.17
2022-08-16T16:28:12.841Z,26.21
2022-08-16T16:30:56.539Z,25.93
2022-08-16T16:33:26.864Z,25.50
2022-08-16T16:35:57.833Z,25.89
2022-08-16T16:38:28.701Z,25.80
2022-08-16T16:40:55.383Z,26.84
2022-08-16T16:43:26.033Z,25.65
2022-08-16T16:45:58.904Z,25.58
2022-08-16T16:48:29.623Z,26.24
2022-08-16T16:51:09.478Z,26.25
2022-08-16T16:53:42.237Z,26.87
2022-08-16T16:56:20.299Z,26.45
2022-08-16T16:58:57.511Z,26.59
2022-08-16T17:01:56.398Z,26.79
2022-08-16T17:04:23.971Z,26.91
2022-08-16T17:06:58.196Z,27.01
2022-08-16T17:09:24.856Z,26.98
2022-08-16T17:11:55.486Z,27.82
2022-08-16T17:14:32.393Z,27.42
2022-08-16T17:17:00.772Z,27.52
2022-08-16T17:19:31.750Z,27.69
2022-08-16T17:21:59.574Z,27.65
2022-08-16T17:24:31.256Z,27.94
2022-08-16T17:27:07.709Z,27.70
2022-08-16T17:29:34.870Z,28.36
2022-08-16T17:32:33.587Z,28.29
2022-08-16T17:35:03.033Z,27.87
2022-08-16T17:37:48.890Z,27.30
2022-08-16T17:40:47.305Z,27.66
2022-08-16T17:43:16.300Z,28.12
2022-08-16T17:45:43.418Z,27.78
2022-08-16T17:48:10.017Z,27.41
2022-08-16T17:50:37.449Z,27.81
2022-08-16T17:53:04.476Z,27.63
2022-08-16T17:55:34.040Z,27.90
2022-08-16T17:58:23.603Z,28.53
2022-08-16T18:00:56.282Z,28.54
2022-08-16T18:04:02.962Z,29.34
2022-08-16T18:06:22.982Z,29.70
2022-08-16T18:08:51.190Z,29.66
2022-08-16T18:11:25.735Z,30.00
2022-08-16T18:13:53.463Z,30.73
2022-08-16T18:16:20.633Z,31.66
2022-08-16T18:18:47.223Z,31.80
2022-08-16T18:21:35.352Z,32.07
2022-08-16T18:24:05.423Z,31.75
2022-08-16T18:26:31.925Z,31.89
2022-08-16T18:28:58.482Z,32.03
2022-08-16T18:31:25.206Z,32.76
2022-08-16T18:33:54.771Z,32.84
2022-08-16T18:36:23.701Z,33.21
2022-08-16T18:38:50.658Z,33.80
2022-08-16T18:41:18.647Z,33.14
2022-08-16T18:43:58.839Z,33.80
2022-08-16T18:46:31.816Z,34.33
2022-08-16T18:48:58.661Z,33.44
2022-08-16T18:51:25.903Z,33.69
2022-08-16T18:53:53.068Z,34.22
2022-08-16T18:56:19.675Z,33.51
2022-08-16T18:58:46.476Z,33.34
2022-08-16T19:01:13.147Z,33.62
2022-08-16T19:03:39.865Z,33.86
2022-08-16T19:06:13.656Z,34.12
2022-08-16T19:08:41.892Z,33.99
2022-08-16T19:11:18.858Z,34.25
2022-08-16T19:13:45.642Z,34.05
2022-08-16T19:16:13.068Z,34.60
2022-08-16T19:18:40.056Z,35.33
2022-08-16T19:21:14.538Z,35.27
2022-08-16T19:23:42.531Z,36.20
2022-08-16T19:26:24.403Z,35.92
2022-08-16T19:28:59.854Z,36.62
2022-08-16T19:31:33.399Z,36.08
2022-08-16T19:34:00.437Z,35.76
2022-08-16T19:36:35.643Z,36.05
2022-08-16T19:39:09.211Z,35.66
2022-08-16T19:41:40.916Z,36.99
2022-08-16T19:44:07.568Z,36.07
2022-08-16T19:46:34.514Z,35.66
2022-08-16T19:49:01.298Z,35.73
2022-08-16T19:51:28.359Z,35.29
2022-08-16T19:53:54.879Z,35.42
2022-08-16T19:56:25.471Z,36.00
2022-08-16T19:59:17.598Z,35.68
2022-08-16T20:01:42.067Z,36.16
2022-08-16T20:04:12.235Z,35.75
2022-08-16T20:06:39.848Z,35.79
2022-08-16T20:09:10.463Z,35.18
2022-08-16T20:11:42.912Z,35.02
2022-08-16T20:14:09.864Z,34.42
2022-08-16T20:16:36.394Z,34.48
2022-08-16T20:19:04.090Z,35.04
2022-08-16T20:21:30.781Z,35.38
2022-08-16T20:24:15.756Z,35.36
2022-08-16T20:26:44.402Z,35.33
2022-08-16T20:29:10.933Z,36.15
2022-08-16T20:31:37.531Z,37.22
2022-08-16T20:34:04.391Z,37.43
2022-08-16T20:36:30.932Z,37.19
2022-08-16T20:38:59.875Z,37.99
2022-08-16T20:41:27.268Z,37.79
2022-08-16T20:43:55.012Z,38.23
2022-08-16T20:46:22.116Z,38.17
2022-08-16T20:48:49.034Z,37.93
2022-08-16T20:51:16.171Z,37.95
2022-08-16T20:53:44.160Z,37.47
2022-08-16T20:56:11.429Z,37.37
2022-08-16T20:58:38.328Z,37.79
2022-08-16T21:01:05.853Z,38.00
2022-08-16T21:03:32.546Z,37.39
2022-08-16T21:06:01.884Z,37.53
2022-08-16T21:08:51.830Z,37.46
2022-08-16T21:11:16.231Z,38.17
2022-08-16T21:13:43.146Z,37.89
2022-08-16T21:16:10.243Z,37.37
2022-08-16T21:18:36.787Z,37.59
2022-08-16T21:21:03.434Z,38.09
2022-08-16T21:23:30.146Z,39.68
2022-08-16T21:25:58.370Z,40.93
2022-08-16T21:28:39.221Z,41.14
2022-08-16T21:31:13.691Z,41.62
2022-08-16T21:33:40.796Z,41.70
2022-08-16T21:36:07.617Z,41.03
2022-08-16T21:38:34.201Z,41.24
2022-08-16T21:41:02.323Z,40.48
2022-08-16T21:43:32.273Z,41.07
2022-08-16T21:46:03.045Z,40.79
2022-08-16T21:48:34.552Z,40.39
2022-08-16T21:51:04.733Z,40.51
2022-08-16T21:53:31.272Z,40.18
2022-08-16T21:55:58.948Z,39.71
2022-08-16T21:58:25.845Z,39.99
2022-08-16T22:00:52.769Z,39.71
2022-08-16T22:03:19.283Z,39.43
2022-08-16T22:05:46.873Z,39.64
2022-08-16T22:08:34.122Z,40.28
2022-08-16T22:11:06.923Z,40.77
2022-08-16T22:13:36.860Z,40.66
2022-08-16T22:16:07.194Z,40.51
2022-08-16T22:18:33.684Z,40.66
2022-08-16T22:21:00.240Z,40.28
2022-08-16T22:23:26.895Z,40.67
2022-08-16T22:25:55.024Z,40.27
2022-08-16T22:28:22.758Z,40.28
2022-08-16T22:30:50.285Z,40.64
2022-08-16T22:33:27.556Z,40.85
2022-08-16T22:35:59.811Z,40.66
2022-08-16T22:38:55.896Z,40.85
2022-08-16T22:41:13.926Z,41.43
2022-08-16T22:43:44.855Z,41.38
2022-08-16T22:46:11.391Z,41.99
2022-08-16T22:48:39.391Z,42.38
2022-08-16T22:51:09.458Z,42.38
2022-08-16T22:53:37.400Z,42.26
2022-08-16T22:56:04.843Z,42.58
2022-08-16T22:58:36.555Z,42.77
2022-08-16T23:01:05.740Z,42.35
2022-08-16T23:03:33.004Z,42.59
2022-08-16T23:06:00.444Z,42.72
2022-08-16T23:08:38.449Z,43.56
2022-08-16T23:11:09.091Z,43.88
2022-08-16T23:13:35.734Z,43.28
2022-08-16T23:16:10.732Z,42.44
2022-08-16T23:18:39.390Z,43.00
2022-08-16T23:21:09.201Z,42.73
2022-08-16T23:23:36.193Z,42.35
2022-08-16T23:26:46.488Z,42.62
2022-08-16T23:28:50.070Z,42.76
2022-08-16T23:31:16.701Z,43.08
2022-08-16T23:33:43.207Z,42.79
2022-08-16T23:36:10.213Z,42.24
2022-08-16T23:38:39.356Z,42.23
2022-08-16T23:41:09.307Z,41.97
2022-08-16T23:43:44.303Z,42.38
2022-08-16T23:46:15.480Z,42.37
2022-08-16T23:49:57.594Z,43.09
2022-08-16T23:51:28.953Z,42.68
2022-08-16T23:53:56.148Z,42.34
2022-08-16T23:56:22.723Z,42.85
2022-08-16T23:58:53.684Z,43.13
